createdAt,value
2023-04-13T00:00:32.587Z,7.83
2023-04-13T00:01:32.588Z,7.85
2023-04-13T00:02:32.869Z,7.86
2023-04-13T00:03:32.713Z,7.87
2023-04-13T00:04:32.532Z,7.90
2023-04-13T00:05:32.504Z,7.89
2023-04-13T00:06:32.523Z,7.87
2023-04-13T00:07:32.492Z,7.92
2023-04-13T00:08:32.450Z,7.92
2023-04-13T00:09:32.471Z,7.87
2023-04-13T00:10:32.434Z,7.90
2023-04-13T00:11:32.495Z,7.92
2023-04-13T00:12:32.400Z,7.90
2023-04-13T00:13:32.398Z,7.89
2023-04-13T00:14:32.446Z,7.97
2023-04-13T00:15:32.374Z,7.92
2023-04-13T00:16:32.417Z,7.95
2023-04-13T00:17:32.426Z,7.92
2023-04-13T00:18:32.390Z,7.97
2023-04-13T00:19:32.359Z,8.00
2023-04-13T00:20:32.327Z,7.98
2023-04-13T00:21:32.324Z,7.95
2023-04-13T00:22:32.277Z,7.97
2023-04-13T00:23:32.297Z,8.00
2023-04-13T00:24:32.318Z,8.01
2023-04-13T00:25:32.265Z,7.98
2023-04-13T00:26:32.237Z,8.01
2023-04-13T00:27:32.249Z,8.01
2023-04-13T00:28:32.259Z,8.04
2023-04-13T00:29:32.230Z,8.04
2023-04-13T00:30:32.332Z,8.04
2023-04-13T00:31:32.277Z,7.97
2023-04-13T00:32:32.177Z,7.93
2023-04-13T00:33:32.182Z,7.85
2023-04-13T00:34:32.192Z,7.80
2023-04-13T00:35:32.288Z,7.80
2023-04-13T00:36:32.245Z,7.74
2023-04-13T00:37:32.150Z,7.67
2023-04-13T00:38:32.182Z,7.60
2023-04-13T00:39:32.084Z,7.57
2023-04-13T00:40:32.115Z,7.52
2023-04-13T00:41:32.104Z,7.40
2023-04-13T00:42:32.074Z,7.37
2023-04-13T00:43:32.039Z,7.28
2023-04-13T00:44:32.837Z,7.17
2023-04-13T00:45:32.011Z,7.13
2023-04-13T00:46:32.068Z,7.12
2023-04-13T00:47:32.026Z,7.03
2023-04-13T00:48:32.010Z,7.02
2023-04-13T00:49:31.994Z,6.97
2023-04-13T00:50:31.993Z,6.94
2023-04-13T00:51:31.962Z,6.89
2023-04-13T00:52:31.997Z,6.87
2023-04-13T00:53:31.933Z,6.84
2023-04-13T00:54:32.030Z,6.81
2023-04-13T00:55:31.910Z,6.77
2023-04-13T00:56:31.878Z,6.77
2023-04-13T00:57:31.857Z,6.77
2023-04-13T00:58:31.896Z,6.76
2023-04-13T00:59:31.839Z,6.71
2023-04-13T01:00:31.847Z,6.73
2023-04-13T01:01:31.872Z,6.76
2023-04-13T01:02:31.934Z,6.74
2023-04-13T01:03:31.894Z,6.71
2023-04-13T01:04:31.879Z,6.73
2023-04-13T01:05:31.806Z,6.71
2023-04-13T01:06:31.796Z,6.69
2023-04-13T01:07:31.803Z,6.73
2023-04-13T01:08:31.749Z,6.69
2023-04-13T01:09:31.712Z,6.73
2023-04-13T01:10:31.751Z,6.74
2023-04-13T01:11:31.751Z,6.74
2023-04-13T01:12:31.706Z,6.79
2023-04-13T01:13:31.668Z,6.76
2023-04-13T01:14:31.689Z,6.74
2023-04-13T01:15:31.660Z,6.77
2023-04-13T01:16:31.716Z,6.77
2023-04-13T01:17:31.733Z,6.79
2023-04-13T01:18:31.635Z,6.76
2023-04-13T01:19:31.625Z,6.81
2023-04-13T01:20:31.599Z,6.79
2023-04-13T01:21:31.553Z,6.77
2023-04-13T01:22:31.564Z,6.84
2023-04-13T01:23:31.582Z,6.84
2023-04-13T01:24:31.535Z,6.87
2023-04-13T01:25:31.539Z,6.91
2023-04-13T01:26:31.512Z,6.88
2023-04-13T01:27:31.542Z,6.91
2023-04-13T01:28:31.504Z,6.89
2023-04-13T01:29:31.525Z,6.92
2023-04-13T01:30:31.487Z,6.97
2023-04-13T01:31:31.501Z,6.92
2023-04-13T01:32:31.449Z,6.97
2023-04-13T01:33:31.474Z,7.03
2023-04-13T01:34:31.443Z,7.07
2023-04-13T01:35:31.399Z,7.05
2023-04-13T01:36:31.405Z,7.07
2023-04-13T01:37:31.591Z,7.07
2023-04-13T01:38:31.363Z,7.03
2023-04-13T01:39:31.348Z,7.09
2023-04-13T01:40:31.448Z,7.10
2023-04-13T01:41:31.355Z,7.21
2023-04-13T01:42:31.362Z,7.24
2023-04-13T01:43:31.319Z,7.20
2023-04-13T01:44:31.325Z,7.25
2023-04-13T01:45:31.287Z,7.28
2023-04-13T01:46:31.294Z,7.28
2023-04-13T01:47:31.298Z,7.27
2023-04-13T01:48:31.294Z,7.30
2023-04-13T01:49:31.229Z,7.34
2023-04-13T01:50:31.241Z,7.34
2023-04-13T01:51:31.228Z,7.39
2023-04-13T01:52:31.254Z,7.40
2023-04-13T01:53:31.182Z,7.43
2023-04-13T01:54:31.212Z,7.50
2023-04-13T01:55:31.239Z,7.58
2023-04-13T01:56:31.232Z,7.57
2023-04-13T01:57:31.175Z,7.58
2023-04-13T01:58:31.166Z,7.60
2023-04-13T01:59:31.109Z,7.53
2023-04-13T02:00:31.138Z,7.57
2023-04-13T02:01:31.124Z,7.63
2023-04-13T02:02:31.406Z,7.67
2023-04-13T02:03:31.168Z,7.64
2023-04-13T02:04:31.098Z,7.60
2023-04-13T02:05:31.044Z,7.58
2023-04-13T02:06:31.120Z,7.61
2023-04-13T02:07:31.033Z,7.64
2023-04-13T02:08:32.526Z,7.67
2023-04-13T02:09:31.021Z,7.63
2023-04-13T02:10:31.035Z,7.67
2023-04-13T02:11:30.992Z,7.61
2023-04-13T02:12:31.014Z,7.64
2023-04-13T02:13:31.059Z,7.63
2023-04-13T02:14:31.126Z,7.63
2023-04-13T02:15:31.029Z,7.63
2023-04-13T02:16:31.062Z,7.69
2023-04-13T02:17:31.165Z,7.64
2023-04-13T02:18:31.042Z,7.67
2023-04-13T02:19:30.906Z,7.64
2023-04-13T02:20:30.874Z,7.58
2023-04-13T02:21:30.915Z,7.49
2023-04-13T02:22:30.857Z,7.43
2023-04-13T02:23:30.890Z,7.43
2023-04-13T02:24:30.830Z,7.35
2023-04-13T02:25:30.786Z,7.35
2023-04-13T02:26:30.815Z,7.34
2023-04-13T02:27:30.823Z,7.28
2023-04-13T02:28:30.780Z,7.30
2023-04-13T02:29:30.764Z,7.27
2023-04-13T02:30:30.815Z,7.24
2023-04-13T02:31:30.744Z,7.25
2023-04-13T02:32:30.729Z,7.24
2023-04-13T02:33:30.702Z,7.27
2023-04-13T02:34:30.695Z,7.34
2023-04-13T02:35:30.710Z,7.35
2023-04-13T02:36:30.684Z,7.32
2023-04-13T02:37:30.642Z,7.27
2023-04-13T02:38:30.652Z,7.24
2023-04-13T02:39:30.702Z,7.27
2023-04-13T02:40:30.650Z,7.23
2023-04-13T02:41:30.602Z,7.28
2023-04-13T02:42:30.628Z,7.28
2023-04-13T02:43:30.581Z,7.28
2023-04-13T02:44:30.575Z,7.27
2023-04-13T02:45:30.554Z,7.28
2023-04-13T02:46:32.753Z,7.27
2023-04-13T02:47:30.605Z,7.28
2023-04-13T02:48:30.510Z,7.25
2023-04-13T02:49:31.321Z,7.30
2023-04-13T02:50:30.566Z,7.25
2023-04-13T02:51:30.501Z,7.34
2023-04-13T02:52:30.523Z,7.40
2023-04-13T02:53:30.475Z,7.46
2023-04-13T02:54:30.461Z,7.50
2023-04-13T02:55:30.426Z,7.53
2023-04-13T02:56:30.445Z,7.49
2023-04-13T02:57:30.409Z,7.50
2023-04-13T02:58:30.438Z,7.52
2023-04-13T02:59:30.426Z,7.61
2023-04-13T03:00:30.439Z,7.61
2023-04-13T03:01:30.513Z,7.64
2023-04-13T03:02:30.478Z,7.61
2023-04-13T03:03:30.725Z,7.61
2023-04-13T03:04:30.447Z,7.63
2023-04-13T03:05:30.338Z,7.68
2023-04-13T03:06:30.284Z,7.71
2023-04-13T03:07:30.354Z,7.74
2023-04-13T03:08:30.340Z,7.75
2023-04-13T03:09:30.311Z,7.85
2023-04-13T03:10:30.265Z,7.87
2023-04-13T03:11:30.424Z,7.86
2023-04-13T03:12:30.378Z,7.89
2023-04-13T03:13:30.241Z,7.93
2023-04-13T03:14:30.260Z,7.89
2023-04-13T03:15:30.177Z,7.95
2023-04-13T03:16:30.385Z,7.93
2023-04-13T03:17:30.243Z,7.95
2023-04-13T03:18:30.154Z,7.92
2023-04-13T03:19:30.306Z,7.89
2023-04-13T03:20:30.978Z,7.92
2023-04-13T03:21:30.153Z,7.90
2023-04-13T03:22:31.518Z,7.90
2023-04-13T03:23:30.138Z,7.89
2023-04-13T03:24:30.077Z,7.89
2023-04-13T03:25:31.300Z,7.87
2023-04-13T03:26:30.130Z,7.86
2023-04-13T03:27:30.048Z,7.83
2023-04-13T03:28:30.126Z,7.77
2023-04-13T03:29:30.090Z,7.74
2023-04-13T03:30:30.017Z,7.67
2023-04-13T03:31:30.044Z,7.58
2023-04-13T03:32:30.044Z,7.52
2023-04-13T03:33:30.011Z,7.46
2023-04-13T03:34:29.975Z,7.43
2023-04-13T03:35:30.017Z,7.37
2023-04-13T03:36:29.951Z,7.35
2023-04-13T03:37:30.229Z,7.31
2023-04-13T03:38:29.893Z,7.40
2023-04-13T03:39:29.924Z,7.40
2023-04-13T03:40:29.905Z,7.42
2023-04-13T03:41:31.116Z,7.42
2023-04-13T03:42:29.966Z,7.35
2023-04-13T03:43:30.592Z,7.40
2023-04-13T03:44:31.127Z,7.37
2023-04-13T03:45:29.996Z,7.45
2023-04-13T03:46:29.901Z,7.46
2023-04-13T03:47:29.851Z,7.43
2023-04-13T03:48:31.457Z,7.48
2023-04-13T03:49:29.796Z,7.48
2023-04-13T03:50:29.863Z,7.52
2023-04-13T03:51:30.576Z,7.50
2023-04-13T03:52:30.640Z,7.49
2023-04-13T03:53:30.800Z,7.48
2023-04-13T03:54:30.712Z,7.45
2023-04-13T03:55:29.764Z,7.50
2023-04-13T03:56:32.221Z,7.50
2023-04-13T03:57:29.768Z,7.50
2023-04-13T03:58:29.723Z,7.49
2023-04-13T03:59:29.646Z,7.45
2023-04-13T04:00:29.670Z,7.43
2023-04-13T04:01:30.891Z,7.43
2023-04-13T04:02:29.845Z,7.42
2023-04-13T04:03:29.769Z,7.37
2023-04-13T04:04:29.732Z,7.32
2023-04-13T04:05:29.596Z,7.28
2023-04-13T04:06:34.749Z,7.25
2023-04-13T04:07:29.605Z,7.25
2023-04-13T04:08:29.563Z,7.25
2023-04-13T04:09:29.841Z,7.23
2023-04-13T04:10:29.531Z,7.20
2023-04-13T04:11:29.593Z,7.15
2023-04-13T04:12:29.503Z,7.16
2023-04-13T04:13:31.021Z,7.16
2023-04-13T04:14:29.487Z,7.15
2023-04-13T04:15:30.851Z,7.17
2023-04-13T04:16:29.697Z,7.17
2023-04-13T04:17:30.683Z,7.21
2023-04-13T04:18:29.455Z,7.16
2023-04-13T04:19:29.493Z,7.21
2023-04-13T04:20:30.430Z,7.25
2023-04-13T04:21:30.089Z,7.31
2023-04-13T04:22:29.400Z,7.31
2023-04-13T04:23:31.046Z,7.31
2023-04-13T04:24:31.522Z,7.30
2023-04-13T04:25:29.330Z,7.27
2023-04-13T04:26:29.639Z,7.31
2023-04-13T04:27:29.372Z,7.31
2023-04-13T04:28:29.404Z,7.28
2023-04-13T04:29:29.295Z,7.28
2023-04-13T04:30:30.571Z,7.25
2023-04-13T04:31:29.397Z,7.25
2023-04-13T04:32:29.424Z,7.32
2023-04-13T04:33:29.280Z,7.39
2023-04-13T04:34:31.298Z,7.39
2023-04-13T04:35:29.685Z,7.39
2023-04-13T04:36:29.193Z,7.39
2023-04-13T04:37:29.235Z,7.40
2023-04-13T04:38:29.196Z,7.37
2023-04-13T04:39:29.345Z,7.40
2023-04-13T04:40:29.323Z,7.45
2023-04-13T04:41:31.643Z,7.39
2023-04-13T04:42:29.178Z,7.39
2023-04-13T04:43:29.585Z,7.40
2023-04-13T04:44:29.109Z,7.42
2023-04-13T04:45:29.189Z,7.39
2023-04-13T04:46:29.120Z,7.45
2023-04-13T04:47:29.143Z,7.43
2023-04-13T04:48:29.166Z,7.48
2023-04-13T04:49:29.073Z,7.48
2023-04-13T04:50:29.028Z,7.50
2023-04-13T04:51:30.627Z,7.52
2023-04-13T04:52:41.415Z,7.55
2023-04-13T04:53:28.991Z,7.50
2023-04-13T04:54:29.049Z,7.55
2023-04-13T04:55:30.448Z,7.52
2023-04-13T04:56:28.980Z,7.55
2023-04-13T04:57:38.688Z,7.52
2023-04-13T04:58:28.965Z,7.57
2023-04-13T04:59:30.796Z,7.58
2023-04-13T05:00:31.485Z,7.58
2023-04-13T05:01:30.437Z,7.60
2023-04-13T05:02:28.997Z,7.57
2023-04-13T05:03:29.011Z,7.63
2023-04-13T05:04:28.854Z,7.61
2023-04-13T05:05:30.130Z,7.60
2023-04-13T05:06:28.956Z,7.60
2023-04-13T05:07:28.815Z,7.60
2023-04-13T05:08:29.845Z,7.53
2023-04-13T05:09:28.824Z,7.53
2023-04-13T05:10:28.807Z,7.53
2023-04-13T05:11:28.785Z,7.49
2023-04-13T05:12:28.810Z,7.53
2023-04-13T05:13:28.781Z,7.53
2023-04-13T05:14:28.872Z,7.50
2023-04-13T05:15:28.870Z,7.55
2023-04-13T05:16:28.764Z,7.52
2023-04-13T05:17:28.754Z,7.49
2023-04-13T05:18:28.710Z,7.53
2023-04-13T05:19:28.710Z,7.53
2023-04-13T05:20:28.721Z,7.52
2023-04-13T05:21:28.720Z,7.52
2023-04-13T05:22:28.656Z,7.58
2023-04-13T05:23:28.737Z,7.60
2023-04-13T05:24:28.700Z,7.60
2023-04-13T05:25:28.686Z,7.60
2023-04-13T05:26:28.636Z,7.60
2023-04-13T05:27:28.594Z,7.60
2023-04-13T05:28:28.578Z,7.61
2023-04-13T05:29:28.701Z,7.63
2023-04-13T05:30:28.593Z,7.69
2023-04-13T05:31:28.625Z,7.68
2023-04-13T05:32:28.585Z,7.71
2023-04-13T05:33:28.515Z,7.68
2023-04-13T05:34:28.746Z,7.69
2023-04-13T05:35:28.495Z,7.68
2023-04-13T05:36:28.474Z,7.71
2023-04-13T05:37:28.576Z,7.69
2023-04-13T05:38:32.690Z,7.69
2023-04-13T05:39:28.537Z,7.72
2023-04-13T05:40:28.480Z,7.71
2023-04-13T05:41:28.449Z,7.79
2023-04-13T05:42:28.394Z,7.79
2023-04-13T05:43:28.437Z,7.82
2023-04-13T05:44:28.386Z,7.79
2023-04-13T05:45:28.392Z,7.82
2023-04-13T05:46:28.413Z,7.83
2023-04-13T05:47:28.358Z,7.90
2023-04-13T05:48:28.354Z,8.05
2023-04-13T05:49:28.368Z,8.30
2023-04-13T05:50:28.406Z,8.45
2023-04-13T05:51:28.298Z,8.53
2023-04-13T05:52:28.297Z,8.45
2023-04-13T05:53:28.281Z,8.43
2023-04-13T05:54:28.374Z,8.38
2023-04-13T05:55:28.280Z,8.34
2023-04-13T05:56:28.242Z,8.29
2023-04-13T05:57:28.291Z,8.23
2023-04-13T05:58:28.229Z,8.20
2023-04-13T05:59:28.288Z,8.25
2023-04-13T06:00:28.268Z,8.20
2023-04-13T06:01:28.171Z,8.20
2023-04-13T06:02:28.327Z,8.22
2023-04-13T06:03:28.435Z,8.20
2023-04-13T06:04:28.446Z,8.18
2023-04-13T06:05:28.153Z,8.23
2023-04-13T06:06:28.133Z,8.23
2023-04-13T06:07:28.104Z,8.23
2023-04-13T06:08:29.341Z,8.26
2023-04-13T06:09:28.130Z,8.23
2023-04-13T06:10:28.148Z,8.28
2023-04-13T06:11:28.513Z,8.28
2023-04-13T06:12:28.065Z,8.22
2023-04-13T06:13:28.283Z,8.23
2023-04-13T06:14:28.026Z,8.23
2023-04-13T06:15:28.024Z,8.23
2023-04-13T06:16:28.071Z,8.25
2023-04-13T06:17:28.081Z,8.20
2023-04-13T06:18:27.983Z,8.20
2023-04-13T06:19:29.128Z,8.25
2023-04-13T06:20:28.028Z,8.22
2023-04-13T06:21:27.918Z,8.25
2023-04-13T06:22:31.201Z,8.26
2023-04-13T06:23:27.935Z,8.30
2023-04-13T06:24:27.959Z,8.38
2023-04-13T06:25:27.896Z,8.36
2023-04-13T06:26:27.862Z,8.33
2023-04-13T06:27:28.039Z,8.36
2023-04-13T06:28:27.822Z,8.36
2023-04-13T06:29:27.834Z,8.37
2023-04-13T06:30:27.874Z,8.44
2023-04-13T06:31:28.386Z,8.44
2023-04-13T06:32:28.271Z,8.56
2023-04-13T06:33:29.358Z,8.63
2023-04-13T06:34:28.560Z,8.70
2023-04-13T06:35:28.260Z,8.74
2023-04-13T06:36:27.867Z,8.74
2023-04-13T06:37:27.742Z,8.74
2023-04-13T06:38:27.724Z,8.76
2023-04-13T06:39:28.767Z,8.79
2023-04-13T06:40:27.736Z,8.81
2023-04-13T06:41:28.761Z,8.87
2023-04-13T06:42:27.725Z,8.87
2023-04-13T06:43:29.745Z,8.84
2023-04-13T06:44:27.807Z,8.77
2023-04-13T06:45:27.643Z,8.79
2023-04-13T06:46:27.740Z,8.73
2023-04-13T06:47:27.657Z,8.74
2023-04-13T06:48:27.619Z,8.65
2023-04-13T06:49:27.606Z,8.59
2023-04-13T06:50:27.961Z,8.66
2023-04-13T06:51:27.554Z,8.71
2023-04-13T06:52:27.635Z,8.91
2023-04-13T06:53:27.607Z,9.11
2023-04-13T06:54:27.562Z,9.26
2023-04-13T06:55:28.758Z,9.43
2023-04-13T06:56:27.520Z,9.43
2023-04-13T06:57:27.587Z,9.54
2023-04-13T06:58:27.486Z,9.54
2023-04-13T06:59:27.988Z,9.66
2023-04-13T07:00:30.141Z,9.79
2023-04-13T07:01:27.515Z,9.72
2023-04-13T07:02:28.209Z,9.64
2023-04-13T07:03:27.528Z,9.58
2023-04-13T07:04:29.696Z,9.54
2023-04-13T07:05:27.407Z,9.60
2023-04-13T07:06:27.364Z,9.57
2023-04-13T07:07:27.400Z,9.68
2023-04-13T07:08:27.377Z,9.57
2023-04-13T07:09:27.321Z,9.56
2023-04-13T07:10:29.857Z,9.57
2023-04-13T07:11:27.778Z,9.57
2023-04-13T07:12:27.336Z,9.43
2023-04-13T07:13:27.871Z,9.46
2023-04-13T07:14:27.278Z,9.65
2023-04-13T07:15:27.226Z,9.75
2023-04-13T07:16:27.319Z,9.78
2023-04-13T07:17:30.012Z,9.87
2023-04-13T07:18:27.259Z,9.79
2023-04-13T07:19:27.183Z,9.68
2023-04-13T07:20:27.199Z,9.65
2023-04-13T07:21:28.452Z,9.60
2023-04-13T07:22:27.174Z,9.51
2023-04-13T07:23:28.647Z,9.57
2023-04-13T07:24:30.141Z,9.60
2023-04-13T07:25:28.439Z,9.47
2023-04-13T07:26:27.655Z,9.54
2023-04-13T07:27:29.816Z,9.56
2023-04-13T07:28:27.065Z,9.56
2023-04-13T07:29:27.070Z,9.58
2023-04-13T07:30:27.021Z,9.64
2023-04-13T07:31:27.085Z,9.71
2023-04-13T07:32:30.856Z,9.71
2023-04-13T07:33:27.170Z,9.69
2023-04-13T07:34:27.037Z,9.51
2023-04-13T07:35:27.002Z,9.38
2023-04-13T07:36:27.156Z,9.29
2023-04-13T07:37:27.098Z,9.23
2023-04-13T07:38:26.927Z,9.20
2023-04-13T07:39:26.920Z,9.18
2023-04-13T07:40:26.912Z,9.15
2023-04-13T07:41:26.872Z,9.13
2023-04-13T07:42:27.124Z,9.11
2023-04-13T07:43:26.864Z,9.11
2023-04-13T07:44:26.860Z,9.20
2023-04-13T07:45:27.993Z,9.24
2023-04-13T07:46:26.961Z,9.35
2023-04-13T07:47:32.563Z,9.42
2023-04-13T07:48:27.006Z,9.48
2023-04-13T07:49:26.774Z,9.51
2023-04-13T07:50:26.741Z,9.54
2023-04-13T07:51:26.758Z,9.51
2023-04-13T07:52:26.735Z,9.48
2023-04-13T07:53:26.774Z,9.43
2023-04-13T07:54:26.899Z,9.43
2023-04-13T07:55:26.756Z,9.47
2023-04-13T07:56:26.705Z,9.46
2023-04-13T07:57:26.705Z,9.36
2023-04-13T07:58:26.889Z,9.36
2023-04-13T07:59:26.743Z,9.40
2023-04-13T08:00:26.644Z,9.40
2023-04-13T08:01:26.669Z,9.43
2023-04-13T08:02:26.701Z,9.36
2023-04-13T08:03:26.664Z,9.36
2023-04-13T08:04:27.185Z,9.38
2023-04-13T08:05:26.721Z,9.36
2023-04-13T08:06:26.616Z,9.38
2023-04-13T08:07:26.712Z,9.35
2023-04-13T08:08:26.607Z,9.31
2023-04-13T08:09:26.503Z,9.31
2023-04-13T08:10:26.519Z,9.29
2023-04-13T08:11:26.479Z,9.31
2023-04-13T08:12:26.456Z,9.29
2023-04-13T08:13:26.483Z,9.31
2023-04-13T08:14:26.471Z,9.32
2023-04-13T08:15:26.438Z,9.32
2023-04-13T08:16:26.511Z,9.29
2023-04-13T08:17:26.488Z,9.28
2023-04-13T08:18:26.539Z,9.42
2023-04-13T08:19:26.374Z,9.53
2023-04-13T08:20:26.446Z,9.61
2023-04-13T08:21:26.344Z,9.78
2023-04-13T08:22:37.987Z,9.90
2023-04-13T08:23:27.346Z,10.05
2023-04-13T08:24:26.358Z,10.15
2023-04-13T08:25:26.286Z,10.27
2023-04-13T08:26:26.352Z,10.38
2023-04-13T08:27:26.299Z,10.44
2023-04-13T08:28:26.451Z,10.55
2023-04-13T08:29:26.234Z,10.48
2023-04-13T08:30:26.225Z,10.29
2023-04-13T08:31:26.186Z,10.27
2023-04-13T08:32:27.601Z,10.18
2023-04-13T08:33:28.448Z,10.26
2023-04-13T08:34:27.957Z,10.32
2023-04-13T08:35:26.131Z,10.38
2023-04-13T08:36:27.285Z,10.29
2023-04-13T08:37:26.239Z,10.33
2023-04-13T08:38:27.592Z,10.33
2023-04-13T08:39:30.453Z,10.36
2023-04-13T08:40:29.067Z,10.32
2023-04-13T08:41:26.044Z,10.34
2023-04-13T08:42:28.983Z,10.30
2023-04-13T08:43:26.234Z,10.23
2023-04-13T08:44:27.206Z,10.20
2023-04-13T08:45:26.024Z,10.11
2023-04-13T08:46:26.280Z,9.99
2023-04-13T08:47:26.054Z,10.01
2023-04-13T08:48:25.985Z,9.87
2023-04-13T08:49:26.005Z,9.87
2023-04-13T08:50:26.790Z,9.86
2023-04-13T08:51:26.060Z,9.93
2023-04-13T08:52:26.118Z,9.90
2023-04-13T08:53:27.164Z,9.87
2023-04-13T08:54:27.687Z,9.86
2023-04-13T08:55:27.037Z,9.89
2023-04-13T08:56:37.613Z,9.91
2023-04-13T13:53:15.548Z,14.99
2023-04-13T13:54:15.491Z,15.49
2023-04-13T13:55:15.507Z,15.39
2023-04-13T13:56:15.639Z,15.19
2023-04-13T13:57:15.514Z,14.84
2023-04-13T13:58:15.575Z,14.43
2023-04-13T13:59:15.431Z,14.06
2023-04-13T14:00:15.427Z,13.88
2023-04-13T14:01:15.419Z,13.82
2023-04-13T14:02:15.353Z,13.92
2023-04-13T14:03:15.662Z,14.06
2023-04-13T14:04:15.356Z,14.04
2023-04-13T14:05:15.560Z,14.84
2023-04-13T14:06:15.300Z,15.60
2023-04-13T14:07:15.398Z,16.24
2023-04-13T14:08:15.334Z,15.83
2023-04-13T14:09:15.229Z,15.59
2023-04-13T14:10:15.261Z,15.93
2023-04-13T14:11:15.230Z,16.04
2023-04-13T14:12:15.273Z,16.43
2023-04-13T14:13:15.186Z,16.96
2023-04-13T14:14:22.034Z,17.25
2023-04-13T14:15:16.172Z,17.16
2023-04-13T14:16:15.180Z,17.46
2023-04-13T14:17:15.196Z,17.40
2023-04-13T14:18:15.092Z,17.77
2023-04-13T14:19:15.082Z,17.72
2023-04-13T14:20:15.069Z,17.74
2023-04-13T14:21:15.145Z,17.82
2023-04-13T14:22:15.213Z,16.88
2023-04-13T14:23:15.047Z,17.03
2023-04-13T14:24:15.070Z,17.41
2023-04-13T14:25:15.068Z,17.70
2023-04-13T14:26:15.052Z,18.10
2023-04-13T14:27:15.065Z,18.26
2023-04-13T14:28:15.033Z,17.75
2023-04-13T14:29:15.010Z,17.63
2023-04-13T14:30:15.069Z,17.26
2023-04-13T14:31:15.080Z,16.91
2023-04-13T14:32:14.882Z,16.83
2023-04-13T14:33:14.918Z,17.14
2023-04-13T14:34:14.863Z,17.51
2023-04-13T14:35:14.852Z,17.97
2023-04-13T14:36:14.849Z,18.23
2023-04-13T14:37:14.853Z,18.15
2023-04-13T14:38:14.819Z,18.44
2023-04-13T14:39:14.943Z,18.03
2023-04-13T14:40:14.964Z,17.96
2023-04-13T14:41:15.011Z,17.63
2023-04-13T14:42:15.196Z,17.49
2023-04-13T14:43:15.346Z,17.26
2023-04-13T14:44:14.979Z,17.00
2023-04-13T14:45:15.064Z,17.06
2023-04-13T14:46:14.787Z,17.08
2023-04-13T14:47:14.933Z,17.36
2023-04-13T14:48:14.928Z,17.75
2023-04-13T14:49:14.727Z,17.78
2023-04-13T14:50:14.748Z,16.98
2023-04-13T14:51:14.969Z,16.24
2023-04-13T14:52:15.043Z,15.56
2023-04-13T14:53:14.605Z,15.25
2023-04-13T14:54:15.164Z,14.91
2023-04-13T14:55:14.697Z,14.81
2023-04-13T14:56:14.685Z,14.86
2023-04-13T14:57:14.706Z,14.78
2023-04-13T14:58:14.555Z,15.06
2023-04-13T14:59:14.538Z,15.11
2023-04-13T15:00:14.587Z,15.02
2023-04-13T15:01:14.642Z,15.23
2023-04-13T15:02:14.808Z,15.76
2023-04-13T15:03:14.800Z,15.84
2023-04-13T15:04:14.732Z,16.27
2023-04-13T15:05:15.120Z,16.45
2023-04-13T15:06:14.511Z,16.58
2023-04-13T15:07:14.589Z,16.82
2023-04-13T15:08:14.622Z,17.07
2023-04-13T15:09:14.382Z,17.11
2023-04-13T15:10:14.593Z,17.21
2023-04-13T15:11:14.435Z,17.19
2023-04-13T15:12:14.612Z,17.12
2023-04-13T15:13:14.407Z,16.86
2023-04-13T15:14:14.440Z,17.22
2023-04-13T15:15:23.420Z,17.19
2023-04-13T15:16:14.303Z,16.76
2023-04-13T15:17:14.321Z,16.50
2023-04-13T15:18:14.395Z,16.83
2023-04-13T15:19:14.299Z,16.98
2023-04-13T15:20:14.260Z,16.66
2023-04-13T15:21:14.267Z,16.23
2023-04-13T15:22:14.224Z,15.80
2023-04-13T15:23:14.273Z,15.35
2023-04-13T15:24:14.249Z,15.13
2023-04-13T15:25:14.235Z,14.95
2023-04-13T15:26:14.196Z,14.70
2023-04-13T15:27:14.327Z,14.42
2023-04-13T15:28:14.172Z,14.33
2023-04-13T15:29:14.408Z,14.50
2023-04-13T15:30:14.144Z,14.64
2023-04-13T15:31:14.219Z,14.62
2023-04-13T15:32:14.250Z,14.69
2023-04-13T15:33:14.154Z,15.03
2023-04-13T15:34:14.080Z,15.36
2023-04-13T15:35:14.092Z,15.69
2023-04-13T15:36:14.095Z,16.04
2023-04-13T15:37:14.032Z,16.30
2023-04-13T15:38:14.034Z,16.67
2023-04-13T15:39:14.048Z,16.64
2023-04-13T15:40:14.067Z,16.83
2023-04-13T15:41:14.064Z,16.93
2023-04-13T15:42:13.967Z,16.75
2023-04-13T15:43:14.025Z,16.66
2023-04-13T15:44:13.927Z,16.17
2023-04-13T15:45:13.927Z,16.25
2023-04-13T15:46:14.040Z,16.39
2023-04-13T15:47:13.929Z,16.49
2023-04-13T15:48:13.948Z,16.60
2023-04-13T15:49:13.937Z,16.53
2023-04-13T15:50:13.932Z,16.53
2023-04-13T15:51:13.822Z,16.15
2023-04-13T15:52:14.132Z,15.93
2023-04-13T15:53:13.820Z,15.84
2023-04-13T15:54:13.833Z,15.72
2023-04-13T15:55:13.855Z,15.71
2023-04-13T15:56:13.765Z,15.62
2023-04-13T15:57:13.785Z,15.51
2023-04-13T15:58:13.734Z,15.50
2023-04-13T15:59:13.806Z,15.57
2023-04-13T16:00:13.776Z,15.67
2023-04-13T16:01:13.739Z,15.56
2023-04-13T16:02:13.856Z,15.39
2023-04-13T16:03:13.885Z,15.19
2023-04-13T16:04:13.788Z,15.11
2023-04-13T16:05:13.740Z,14.95
2023-04-13T16:06:13.654Z,14.91
2023-04-13T16:07:14.763Z,14.98
2023-04-13T16:08:13.748Z,15.01
2023-04-13T16:09:13.623Z,15.13
2023-04-13T16:10:14.609Z,15.21
2023-04-13T16:11:13.606Z,15.20
2023-04-13T16:12:13.571Z,15.25
2023-04-13T16:13:13.556Z,15.13
2023-04-13T16:14:13.601Z,15.21
2023-04-13T16:15:13.543Z,15.34
2023-04-13T16:16:13.551Z,15.34
2023-04-13T16:17:13.530Z,15.28
2023-04-13T16:18:13.535Z,14.98
2023-04-13T16:19:13.647Z,14.89
2023-04-13T16:20:13.874Z,14.96
2023-04-13T16:21:13.477Z,15.06
2023-04-13T16:22:13.449Z,14.98
2023-04-13T16:23:13.395Z,14.96
2023-04-13T16:24:13.407Z,14.99
2023-04-13T16:25:13.365Z,15.01
2023-04-13T16:26:13.360Z,15.11
2023-04-13T16:27:13.369Z,15.03
2023-04-13T16:28:13.369Z,15.07
2023-04-13T16:29:13.330Z,15.07
2023-04-13T16:30:13.391Z,15.07
2023-04-13T16:31:13.348Z,15.06
2023-04-13T16:32:13.326Z,14.96
2023-04-13T16:33:27.210Z,14.84
2023-04-13T16:34:25.564Z,14.73
2023-04-13T16:35:14.211Z,14.58
2023-04-13T16:36:15.222Z,14.57
2023-04-13T16:37:13.288Z,14.55
2023-04-13T16:38:15.065Z,14.54
2023-04-13T16:39:13.358Z,14.50
2023-04-13T16:40:13.156Z,14.51
2023-04-13T16:41:13.518Z,14.46
2023-04-13T16:42:13.181Z,14.28
2023-04-13T16:43:13.261Z,14.21
2023-04-13T16:44:13.167Z,14.21
2023-04-13T16:45:14.646Z,14.21
2023-04-13T16:46:13.226Z,14.27
2023-04-13T16:47:14.240Z,14.29
2023-04-13T16:48:13.073Z,14.32
2023-04-13T16:49:14.541Z,14.35
2023-04-13T16:50:13.070Z,14.33
2023-04-13T16:51:12.975Z,14.33
2023-04-13T16:52:13.022Z,14.29
2023-04-13T16:53:13.007Z,14.27
2023-04-13T16:54:13.027Z,14.24
2023-04-13T16:55:13.251Z,14.21
2023-04-13T16:56:14.694Z,14.22
2023-04-13T16:57:12.936Z,14.25
2023-04-13T16:58:13.330Z,14.28
2023-04-13T16:59:12.882Z,14.29
2023-04-13T17:00:12.905Z,14.29
2023-04-13T17:01:12.937Z,14.21
2023-04-13T17:02:24.673Z,14.24
2023-04-13T17:03:13.996Z,14.24
2023-04-13T17:04:12.957Z,14.21
2023-04-13T17:05:12.886Z,14.18
2023-04-13T17:06:12.802Z,14.12
2023-04-13T17:07:12.790Z,14.12
2023-04-13T17:08:14.015Z,14.06
2023-04-13T17:09:12.907Z,14.10
2023-04-13T17:10:13.258Z,14.04
2023-04-13T17:11:12.804Z,13.99
2023-04-13T17:12:12.700Z,14.00
2023-04-13T17:13:12.722Z,13.95
2023-04-13T17:14:12.703Z,13.95
2023-04-13T17:15:12.738Z,13.91
2023-04-13T17:16:13.009Z,13.95
2023-04-13T17:17:12.652Z,13.96
2023-04-13T17:18:13.074Z,13.99
2023-04-13T17:19:12.621Z,13.96
2023-04-13T17:20:13.439Z,13.99
2023-04-13T17:21:13.112Z,14.00
2023-04-13T17:22:12.607Z,14.03
2023-04-13T17:23:12.575Z,14.04
2023-04-13T17:24:12.599Z,14.03
2023-04-13T17:25:12.551Z,13.99
2023-04-13T17:26:12.531Z,14.02
2023-04-13T17:27:12.531Z,14.04
2023-04-13T17:28:12.526Z,14.03
2023-04-13T17:29:12.661Z,14.00
2023-04-13T17:30:12.460Z,14.00
2023-04-13T17:31:12.501Z,13.97
2023-04-13T17:32:12.523Z,14.02
2023-04-13T17:33:12.549Z,14.00
2023-04-13T17:34:12.410Z,13.96
2023-04-13T17:35:12.482Z,13.91
2023-04-13T17:36:12.460Z,13.88
2023-04-13T17:37:12.405Z,13.88
2023-04-13T17:38:12.394Z,13.87
2023-04-13T17:39:12.460Z,13.84
2023-04-13T17:40:12.577Z,13.81
2023-04-13T17:41:12.351Z,13.82
2023-04-13T17:42:12.350Z,13.77
2023-04-13T17:43:12.392Z,13.75
2023-04-13T17:44:13.352Z,13.75
2023-04-13T17:45:12.373Z,13.71
2023-04-13T17:46:12.423Z,13.69
2023-04-13T17:47:12.228Z,13.69
2023-04-13T17:48:12.297Z,13.64
2023-04-13T17:49:12.193Z,13.63
2023-04-13T17:50:12.217Z,13.59
2023-04-13T17:51:12.885Z,13.57
2023-04-13T17:52:12.180Z,13.54
2023-04-13T17:53:13.054Z,13.55
2023-04-13T17:54:12.174Z,13.55
2023-04-13T17:55:12.411Z,13.52
2023-04-13T17:56:12.152Z,13.48
2023-04-13T17:57:12.125Z,13.45
2023-04-13T17:58:12.113Z,13.41
2023-04-13T17:59:12.278Z,13.41
2023-04-13T18:00:12.148Z,13.36
2023-04-13T18:01:12.174Z,13.29
2023-04-13T18:02:12.296Z,13.26
2023-04-13T18:03:12.158Z,13.23
2023-04-13T18:04:12.132Z,13.17
2023-04-13T18:05:12.104Z,13.15